Terminal Aerodrome Forecast
Issued by NWS

Current Version | Previous Version | Text Only | Print | Product List | Glossary On
Versions: 1 2 3 4 5 6 7 8 9 10 11 12 13 14 15 16 17 18 19 20 21 22 23 24 25 26 27 28 29 30 31 32
000
FTUS41 KCAR 251249 AAA
TAFBHB
TAF AMD
KBHB 251249Z 2513/2612 00000KT 1 1/2SM BR OVC003
     FM251400 15005KT 2SM BR OVC006
     FM251500 19006KT P6SM BKN015
     FM251700 20007KT P6SM BKN060
     FM260000 17004KT P6SM BKN250
     FM260300 VRB03KT 2SM BR SCT003 BKN100
     FM260900 31007KT 1SM BR SCT001=

USA.gov is the U.S. government's official web portal to all federal, state and local government web resources and services.